createdAt,value
2019-06-08T00:01:58.887Z,9.20
2019-06-08T00:04:27.390Z,9.63
2019-06-08T00:06:56.006Z,9.43
2019-06-08T00:09:24.737Z,8.80
2019-06-08T00:11:53.429Z,8.30
2019-06-08T00:14:23.320Z,9.53
2019-06-08T00:16:52.123Z,9.47
2019-06-08T00:19:21.522Z,9.30
2019-06-08T00:21:50.058Z,10.03
2019-06-08T00:24:19.824Z,9.27
2019-06-08T00:26:48.476Z,10.37
2019-06-08T00:29:18.302Z,8.63
2019-06-08T00:31:47.079Z,8.50
2019-06-08T00:34:16.556Z,9.30
2019-06-08T00:36:45.673Z,8.97
2019-06-08T00:39:14.706Z,8.77
2019-06-08T00:41:43.506Z,8.33
2019-06-08T00:44:12.109Z,9.97
2019-06-08T00:46:40.779Z,9.70
2019-06-08T00:49:09.410Z,8.57
2019-06-08T00:51:38.088Z,8.43
2019-06-08T00:54:06.823Z,8.13
2019-06-08T00:56:35.510Z,8.57
2019-06-08T00:59:04.257Z,9.70
2019-06-08T01:01:32.791Z,9.90
2019-06-08T01:04:01.475Z,10.30
2019-06-08T01:06:30.040Z,10.90
2019-06-08T01:08:58.610Z,11.27
2019-06-08T01:11:27.291Z,10.77
2019-06-08T01:13:55.977Z,10.57
2019-06-08T01:16:25.038Z,10.73
2019-06-08T01:18:53.690Z,10.63
2019-06-08T01:21:23.284Z,9.70
2019-06-08T01:23:51.983Z,9.97
2019-06-08T01:26:22.151Z,10.23
2019-06-08T01:28:51.001Z,9.80
2019-06-08T01:31:20.376Z,8.93
2019-06-08T01:33:49.013Z,9.97
2019-06-08T01:36:17.589Z,10.07
2019-06-08T01:38:48.843Z,9.50
2019-06-08T01:41:17.543Z,10.10
2019-06-08T01:43:46.109Z,11.03
2019-06-08T01:46:14.807Z,10.70
2019-06-08T01:48:43.377Z,10.63
2019-06-08T01:51:11.961Z,11.50
2019-06-08T01:53:40.594Z,11.00
2019-06-08T01:56:09.279Z,11.50
2019-06-08T01:58:37.881Z,11.60
2019-06-08T02:01:07.027Z,12.73
2019-06-08T02:03:35.734Z,12.40
2019-06-08T02:06:04.356Z,12.13
2019-06-08T02:08:33.006Z,12.73
2019-06-08T02:11:01.625Z,12.53
2019-06-08T02:13:31.013Z,12.33
2019-06-08T02:15:59.637Z,12.37
2019-06-08T02:18:41.912Z,13.03
2019-06-08T02:20:58.607Z,12.83
2019-06-08T02:23:27.284Z,14.30
2019-06-08T02:25:56.024Z,15.47
2019-06-08T02:28:24.700Z,15.77
2019-06-08T02:30:53.384Z,15.70
2019-06-08T02:33:21.954Z,15.90
2019-06-08T02:35:50.552Z,17.50
2019-06-08T02:38:19.256Z,17.07
2019-06-08T02:40:47.901Z,17.80
2019-06-08T02:43:16.735Z,18.27
2019-06-08T02:45:45.422Z,17.53
2019-06-08T02:48:14.064Z,16.40
2019-06-08T02:50:53.519Z,18.17
2019-06-08T02:53:22.858Z,16.87
2019-06-08T02:55:51.540Z,17.33
2019-06-08T02:58:20.975Z,17.20
2019-06-08T03:00:50.655Z,16.03
2019-06-08T03:03:19.433Z,17.23
2019-06-08T03:05:50.733Z,15.63
2019-06-08T03:08:20.732Z,16.40
2019-06-08T03:10:51.928Z,15.40
2019-06-08T03:13:22.880Z,15.43
2019-06-08T03:15:51.514Z,15.13
2019-06-08T03:18:20.057Z,14.27
2019-06-08T03:20:48.696Z,12.97
2019-06-08T03:23:17.380Z,13.37
2019-06-08T03:25:52.996Z,13.70
2019-06-08T03:28:16.416Z,14.67
2019-06-08T03:30:53.175Z,13.27
2019-06-08T03:33:15.410Z,12.60
2019-06-08T03:35:55.455Z,13.70
2019-06-08T03:38:14.237Z,12.80
2019-06-08T03:40:45.153Z,12.10
2019-06-08T03:43:13.232Z,10.73
2019-06-08T03:45:43.050Z,11.70
2019-06-08T03:48:12.193Z,10.90
2019-06-08T03:50:42.063Z,11.47
2019-06-08T03:53:11.212Z,11.20
2019-06-08T03:55:40.516Z,10.57
2019-06-08T03:58:10.570Z,10.17
2019-06-08T04:00:40.429Z,10.03
2019-06-08T04:03:09.119Z,10.63
2019-06-08T04:05:39.807Z,9.43
2019-06-08T04:08:08.054Z,10.97
2019-06-08T04:10:37.644Z,10.23
2019-06-08T04:13:11.404Z,11.03
2019-06-08T04:15:40.403Z,10.53
2019-06-08T04:18:09.163Z,10.83
2019-06-08T04:20:38.076Z,10.50
2019-06-08T04:23:06.760Z,10.57
2019-06-08T04:25:35.421Z,10.33
2019-06-08T04:28:04.072Z,10.27
2019-06-08T04:30:32.667Z,9.80
2019-06-08T04:33:01.166Z,9.07
2019-06-08T04:35:29.856Z,9.47
2019-06-08T04:37:58.477Z,10.17
2019-06-08T04:40:27.161Z,9.60
2019-06-08T04:42:55.736Z,9.33
2019-06-08T04:45:24.302Z,10.10
2019-06-08T04:47:52.986Z,13.03
2019-06-08T04:50:24.024Z,9.83
2019-06-08T04:52:52.008Z,9.57
2019-06-08T04:55:20.651Z,10.93
2019-06-08T04:57:50.842Z,10.47
2019-06-08T05:00:20.268Z,9.80
2019-06-08T05:02:51.139Z,10.53
2019-06-08T05:05:19.240Z,10.87
2019-06-08T05:07:49.758Z,9.57
2019-06-08T05:10:18.346Z,9.37
2019-06-08T05:12:47.748Z,9.80
2019-06-08T05:15:17.590Z,8.23
2019-06-08T05:17:47.491Z,8.33
2019-06-08T05:20:17.189Z,7.73
2019-06-08T05:22:47.578Z,7.23
2019-06-08T05:25:16.444Z,8.03
2019-06-08T05:27:45.400Z,7.87
2019-06-08T05:30:15.021Z,8.53
2019-06-08T05:32:43.754Z,8.30
2019-06-08T05:35:12.784Z,7.73
2019-06-08T05:37:41.575Z,8.13
2019-06-08T05:40:10.312Z,7.40
2019-06-08T05:42:40.601Z,7.17
2019-06-08T05:45:09.900Z,7.17
2019-06-08T05:47:39.758Z,6.93
2019-06-08T05:50:09.628Z,6.92
2019-06-08T05:52:39.756Z,6.40
2019-06-08T05:55:09.368Z,7.20
2019-06-08T05:57:38.002Z,7.27
2019-06-08T06:00:13.158Z,6.47
2019-06-08T06:02:42.246Z,6.67
2019-06-08T06:05:11.279Z,6.08
2019-06-08T06:07:40.572Z,6.67
2019-06-08T06:10:09.504Z,7.30
2019-06-08T06:12:38.147Z,6.47
2019-06-08T06:15:10.058Z,6.30
2019-06-08T06:17:38.705Z,6.62
2019-06-08T06:20:07.840Z,7.20
2019-06-08T06:22:36.528Z,7.03
2019-06-08T06:25:06.950Z,9.35
2019-06-08T06:27:36.509Z,7.33
2019-06-08T06:30:07.914Z,7.72
2019-06-08T06:32:38.688Z,6.80
2019-06-08T06:35:07.379Z,7.17
2019-06-08T06:37:36.018Z,7.15
2019-06-08T06:40:07.102Z,8.38
2019-06-08T06:42:35.688Z,5.72
2019-06-08T06:45:06.724Z,6.30
2019-06-08T06:47:35.256Z,5.80
2019-06-08T06:50:05.184Z,6.10
2019-06-08T06:52:35.899Z,5.78
2019-06-08T06:55:05.741Z,4.83
2019-06-08T06:57:36.397Z,6.53
2019-06-08T07:00:09.513Z,5.47
2019-06-08T07:02:38.156Z,4.92
2019-06-08T07:05:08.636Z,4.12
2019-06-08T07:07:37.263Z,6.42
2019-06-08T07:10:09.050Z,4.58
2019-06-08T07:12:37.764Z,4.20
2019-06-08T07:15:07.429Z,4.33
2019-06-08T07:17:36.094Z,3.70
2019-06-08T07:20:07.158Z,4.03
2019-06-08T07:22:35.881Z,3.92
2019-06-08T07:25:05.114Z,4.00
2019-06-08T07:27:33.747Z,4.35
2019-06-08T07:30:02.624Z,4.28
2019-06-08T07:32:31.261Z,4.22
2019-06-08T07:34:59.836Z,4.22
2019-06-08T07:37:28.450Z,4.65
2019-06-08T07:39:57.192Z,4.20
2019-06-08T07:42:25.801Z,4.12
2019-06-08T07:44:55.087Z,4.80
2019-06-08T07:47:23.905Z,4.22
2019-06-08T07:49:53.264Z,4.70
2019-06-08T07:52:22.004Z,3.67
2019-06-08T07:54:50.988Z,3.30
2019-06-08T07:57:19.686Z,3.50
2019-06-08T07:59:49.181Z,3.45
2019-06-08T08:02:18.791Z,3.22
2019-06-08T08:04:48.431Z,3.72
2019-06-08T08:07:17.070Z,3.65
2019-06-08T08:09:45.600Z,4.25
2019-06-08T08:12:14.240Z,3.62
2019-06-08T08:14:42.866Z,2.85
2019-06-08T08:17:11.445Z,2.95
2019-06-08T08:19:42.203Z,3.60
2019-06-08T08:22:22.089Z,3.70
2019-06-08T08:24:41.161Z,3.10
2019-06-08T08:27:09.801Z,2.80
2019-06-08T08:29:38.515Z,3.25
2019-06-08T08:32:07.568Z,4.55
2019-06-08T08:34:38.175Z,3.62
2019-06-08T08:37:09.498Z,3.30
2019-06-08T08:39:37.791Z,3.60
2019-06-08T08:42:08.477Z,2.90
2019-06-08T08:44:38.039Z,2.90
2019-06-08T08:47:07.624Z,3.27
2019-06-08T08:49:38.024Z,3.47
2019-06-08T08:52:11.235Z,3.12
2019-06-08T08:54:37.785Z,2.72
2019-06-08T08:57:08.416Z,3.83
2019-06-08T08:59:38.211Z,3.12
2019-06-08T09:02:08.354Z,3.50
2019-06-08T09:04:38.018Z,2.85
2019-06-08T09:07:10.230Z,2.80
2019-06-08T09:09:38.662Z,3.33
2019-06-08T09:12:08.313Z,3.30
2019-06-08T09:14:38.749Z,2.92
2019-06-08T09:17:08.593Z,2.77
2019-06-08T09:19:38.217Z,3.40
2019-06-08T09:22:08.577Z,3.90
2019-06-08T09:24:39.041Z,4.25
2019-06-08T09:27:08.209Z,2.90
2019-06-08T09:29:38.818Z,2.20
2019-06-08T09:32:08.276Z,2.98
2019-06-08T09:34:38.622Z,2.47
2019-06-08T09:37:08.075Z,2.65
2019-06-08T09:39:38.560Z,3.20
2019-06-08T09:42:09.053Z,2.47
2019-06-08T09:44:37.906Z,3.08
2019-06-08T09:47:12.158Z,2.35
2019-06-08T09:49:37.766Z,2.17
2019-06-08T09:52:08.431Z,1.80
2019-06-08T09:54:38.485Z,2.25
2019-06-08T09:57:09.030Z,2.62
2019-06-08T09:59:38.574Z,1.77
2019-06-08T10:02:12.411Z,2.52
2019-06-08T10:04:41.001Z,2.50
2019-06-08T10:07:11.737Z,2.77
2019-06-08T10:09:43.242Z,2.55
2019-06-08T10:12:10.712Z,3.00
2019-06-08T10:14:39.295Z,2.15
2019-06-08T10:17:09.020Z,2.25
2019-06-08T10:19:39.913Z,2.12
2019-06-08T10:22:08.742Z,2.22
2019-06-08T10:24:41.173Z,2.15
2019-06-08T10:27:11.026Z,1.50
2019-06-08T10:29:38.354Z,2.17
2019-06-08T10:32:09.218Z,2.00
2019-06-08T10:34:38.794Z,2.55
2019-06-08T10:37:12.722Z,1.85
2019-06-08T10:39:38.058Z,2.00
2019-06-08T10:42:09.780Z,2.20
2019-06-08T10:44:38.195Z,1.82
2019-06-08T10:47:09.989Z,2.00
2019-06-08T10:49:38.405Z,1.37
2019-06-08T10:52:10.654Z,1.52
2019-06-08T10:54:37.997Z,1.75
2019-06-08T10:57:07.759Z,2.47
2019-06-08T10:59:40.293Z,1.57
2019-06-08T11:02:13.438Z,1.70
2019-06-08T11:04:43.153Z,1.50
2019-06-08T11:07:15.537Z,2.22
2019-06-08T11:09:42.369Z,1.82
2019-06-08T11:12:14.566Z,1.90
2019-06-08T11:14:41.316Z,1.35
2019-06-08T11:17:11.210Z,1.85
2019-06-08T11:19:40.065Z,1.90
2019-06-08T11:22:13.885Z,1.32
2019-06-08T11:24:39.040Z,2.00
2019-06-08T11:27:11.118Z,2.25
2019-06-08T11:29:38.508Z,1.92
2019-06-08T11:32:10.911Z,1.40
2019-06-08T11:34:37.972Z,1.72
2019-06-08T11:37:11.352Z,1.27
2019-06-08T11:39:38.258Z,1.60
2019-06-08T11:42:09.836Z,1.85
2019-06-08T11:44:39.023Z,1.72
2019-06-08T11:47:12.197Z,1.70
2019-06-08T11:49:38.111Z,1.40
2019-06-08T11:52:06.956Z,1.37
2019-06-08T11:54:38.047Z,1.75
2019-06-08T11:57:08.363Z,1.90
2019-06-08T11:59:37.524Z,1.42
2019-06-08T12:02:09.078Z,1.72
2019-06-08T12:04:38.415Z,1.60
2019-06-08T12:07:09.532Z,1.82
2019-06-08T12:09:37.423Z,2.08
2019-06-08T12:12:09.056Z,1.70
2019-06-08T12:14:37.695Z,2.08
2019-06-08T12:17:11.776Z,1.87
2019-06-08T12:19:37.721Z,2.10
2019-06-08T12:22:08.778Z,1.87
2019-06-08T12:24:41.950Z,1.32
2019-06-08T12:27:21.736Z,1.57
2019-06-08T12:29:39.020Z,1.92
2019-06-08T12:32:09.371Z,1.67
2019-06-08T12:34:38.466Z,1.50
2019-06-08T12:37:08.786Z,1.80
2019-06-08T12:39:38.809Z,1.80
2019-06-08T12:42:09.618Z,1.42
2019-06-08T12:44:38.447Z,2.00
2019-06-08T12:47:10.614Z,1.77
2019-06-08T12:49:40.124Z,1.40
2019-06-08T12:52:09.963Z,1.75
2019-06-08T12:54:38.199Z,1.62
2019-06-08T12:57:10.159Z,1.42
2019-06-08T12:59:38.527Z,2.33
2019-06-08T13:02:10.567Z,2.17
2019-06-08T13:04:38.404Z,1.75
2019-06-08T13:07:09.697Z,1.52
2019-06-08T13:09:38.418Z,1.72
2019-06-08T13:12:08.021Z,8.60
2019-06-08T13:14:38.543Z,1.55
2019-06-08T13:17:08.612Z,1.95
2019-06-08T13:19:38.584Z,2.33
2019-06-08T13:22:08.964Z,2.10
2019-06-08T13:24:37.885Z,2.30
2019-06-08T13:27:06.922Z,2.15
2019-06-08T13:29:35.625Z,2.65
2019-06-08T13:32:07.849Z,1.77
2019-06-08T13:34:38.666Z,2.20
2019-06-08T13:37:08.331Z,2.42
2019-06-08T13:39:38.815Z,1.90
2019-06-08T13:42:07.819Z,2.40
2019-06-08T13:44:37.794Z,2.10
2019-06-08T13:47:07.630Z,2.70
2019-06-08T13:49:37.683Z,1.98
2019-06-08T13:52:07.918Z,1.92
2019-06-08T13:54:38.197Z,3.52
2019-06-08T13:57:08.523Z,2.87
2019-06-08T13:59:39.003Z,2.83
2019-06-08T14:02:07.826Z,2.45
2019-06-08T14:04:39.487Z,2.67
2019-06-08T14:07:07.800Z,2.60
2019-06-08T14:09:38.271Z,3.15
2019-06-08T14:12:07.734Z,2.80
2019-06-08T14:14:39.664Z,2.85
2019-06-08T14:17:08.659Z,3.00
2019-06-08T14:19:38.533Z,2.55
2019-06-08T14:22:10.421Z,2.85
2019-06-08T14:24:37.939Z,2.40
2019-06-08T14:27:08.193Z,5.45
2019-06-08T14:29:36.973Z,2.98
2019-06-08T14:32:07.773Z,3.00
2019-06-08T14:34:38.633Z,2.90
2019-06-08T14:37:08.598Z,2.33
2019-06-08T14:39:37.502Z,3.50
2019-06-08T14:42:08.218Z,3.08
2019-06-08T14:44:38.105Z,2.72
2019-06-08T14:47:15.652Z,3.50
2019-06-08T14:49:48.753Z,3.40
2019-06-08T14:52:19.341Z,2.90
2019-06-08T14:54:51.142Z,3.08
2019-06-08T14:57:21.273Z,3.30
2019-06-08T14:59:50.359Z,2.80
2019-06-08T15:02:19.472Z,3.80
2019-06-08T15:04:48.519Z,2.98
2019-06-08T15:07:20.058Z,3.62
2019-06-08T15:09:48.010Z,2.87
2019-06-08T15:12:17.822Z,2.98
2019-06-08T15:14:49.556Z,2.95
2019-06-08T15:17:19.304Z,2.67
2019-06-08T15:19:48.173Z,2.52
2019-06-08T15:22:18.744Z,2.85
2019-06-08T15:24:47.876Z,2.90
2019-06-08T15:27:18.391Z,2.87
2019-06-08T15:29:47.735Z,3.20
2019-06-08T15:32:17.892Z,2.87
2019-06-08T15:34:47.721Z,2.70
2019-06-08T15:37:18.599Z,2.80
2019-06-08T15:39:48.591Z,3.37
2019-06-08T15:42:18.036Z,3.12
2019-06-08T15:44:47.998Z,3.05
2019-06-08T15:47:18.037Z,3.27
2019-06-08T15:49:50.189Z,2.98
2019-06-08T15:52:17.582Z,3.83
2019-06-08T15:54:48.302Z,4.12
2019-06-08T15:57:18.014Z,4.22
2019-06-08T15:59:49.049Z,5.85
2019-06-08T16:02:16.958Z,4.10
2019-06-08T16:04:45.597Z,3.67
2019-06-08T16:07:17.353Z,3.90
2019-06-08T16:09:45.829Z,3.62
2019-06-08T16:12:14.431Z,4.67
2019-06-08T16:14:42.994Z,4.00
2019-06-08T16:17:11.706Z,4.33
2019-06-08T16:19:40.346Z,4.00
2019-06-08T16:22:08.991Z,4.22
2019-06-08T16:24:37.659Z,4.65
2019-06-08T16:27:06.221Z,3.98
2019-06-08T16:29:35.140Z,4.67
2019-06-08T16:32:03.877Z,6.28
2019-06-08T16:34:35.646Z,4.20
2019-06-08T16:37:04.345Z,4.40
2019-06-08T16:39:33.045Z,4.70
2019-06-08T16:42:02.139Z,4.80
2019-06-08T16:44:32.188Z,4.10
2019-06-08T16:47:00.905Z,4.50
2019-06-08T16:49:29.485Z,5.37
2019-06-08T16:51:58.149Z,5.37
2019-06-08T16:54:26.823Z,5.10
2019-06-08T16:57:08.938Z,5.53
2019-06-08T16:59:25.718Z,4.42
2019-06-08T17:01:54.282Z,5.60
2019-06-08T17:04:22.889Z,5.20
2019-06-08T17:06:51.449Z,5.33
2019-06-08T17:09:20.063Z,4.70
2019-06-08T17:11:48.621Z,4.95
2019-06-08T17:14:17.120Z,5.47
2019-06-08T17:16:45.717Z,6.62
2019-06-08T17:19:14.371Z,6.95
2019-06-08T17:21:42.991Z,6.47
2019-06-08T17:24:11.574Z,7.65
2019-06-08T17:26:40.806Z,8.25
2019-06-08T17:29:09.541Z,7.80
2019-06-08T17:31:39.230Z,7.87
2019-06-08T17:34:08.085Z,7.03
2019-06-08T17:36:36.719Z,6.47
2019-06-08T17:39:07.003Z,6.75
2019-06-08T17:41:36.097Z,6.05
2019-06-08T17:44:04.749Z,6.78
2019-06-08T17:46:34.568Z,6.75
2019-06-08T17:49:03.459Z,6.90
2019-06-08T17:51:32.797Z,6.72
2019-06-08T17:54:01.408Z,6.53
2019-06-08T17:56:30.081Z,6.10
2019-06-08T17:58:58.718Z,7.10
2019-06-08T18:01:27.361Z,6.12
2019-06-08T18:03:57.445Z,6.47
2019-06-08T18:06:27.196Z,5.72
2019-06-08T18:08:58.596Z,6.05
2019-06-08T18:11:27.960Z,5.70
2019-06-08T18:13:58.806Z,5.30
2019-06-08T18:16:27.912Z,7.58
2019-06-08T18:18:57.748Z,8.95
2019-06-08T18:21:28.250Z,11.35
2019-06-08T18:23:57.283Z,10.43
2019-06-08T18:26:27.827Z,5.85
2019-06-08T18:28:58.138Z,6.45
2019-06-08T18:31:27.680Z,6.22
2019-06-08T18:33:57.851Z,6.35
2019-06-08T18:36:27.634Z,5.83
2019-06-08T18:38:58.174Z,5.20
2019-06-08T18:41:27.205Z,5.35
2019-06-08T18:43:58.201Z,4.85
2019-06-08T18:46:27.184Z,5.70
2019-06-08T18:48:57.870Z,5.05
2019-06-08T18:51:29.335Z,4.72
2019-06-08T18:54:08.657Z,5.40
2019-06-08T18:56:28.327Z,5.90
2019-06-08T18:58:58.278Z,5.08
2019-06-08T19:01:27.509Z,5.08
2019-06-08T19:03:57.927Z,6.37
2019-06-08T19:06:27.843Z,5.67
2019-06-08T19:08:58.053Z,6.62
2019-06-08T19:11:28.560Z,6.00
2019-06-08T19:13:58.051Z,6.12
2019-06-08T19:16:28.511Z,5.67
2019-06-08T19:18:58.104Z,6.08
2019-06-08T19:21:27.783Z,6.10
2019-06-08T19:23:56.972Z,6.28
2019-06-08T19:26:28.010Z,6.83
2019-06-08T19:28:57.798Z,6.20
2019-06-08T19:31:27.674Z,7.35
2019-06-08T19:33:58.103Z,6.28
2019-06-08T19:36:28.376Z,6.47
2019-06-08T19:38:57.691Z,6.78
2019-06-08T19:41:28.567Z,6.70
2019-06-08T19:43:58.423Z,6.67
2019-06-08T19:46:27.330Z,6.17
2019-06-08T19:48:58.738Z,6.65
2019-06-08T19:51:28.163Z,6.25
2019-06-08T19:53:58.350Z,5.87
2019-06-08T19:56:28.161Z,6.22
2019-06-08T19:59:03.924Z,6.67
2019-06-08T20:01:28.395Z,5.58
2019-06-08T20:03:58.116Z,6.70
2019-06-08T20:06:27.937Z,6.58
2019-06-08T20:08:57.512Z,6.37
2019-06-08T20:11:29.471Z,5.78
2019-06-08T20:13:57.981Z,6.75
2019-06-08T20:16:27.885Z,8.30
2019-06-08T20:18:58.276Z,12.75
2019-06-08T20:21:27.584Z,11.80
2019-06-08T20:23:58.471Z,11.20
2019-06-08T20:26:28.437Z,14.18
2019-06-08T20:29:11.543Z,13.40
2019-06-08T20:31:30.559Z,11.40
2019-06-08T20:33:59.251Z,10.53
2019-06-08T20:36:28.847Z,11.80
2019-06-08T20:38:58.456Z,10.87
2019-06-08T20:41:27.766Z,9.55
2019-06-08T20:43:59.153Z,11.10
2019-06-08T20:46:28.680Z,9.48
2019-06-08T20:48:57.758Z,8.80
2019-06-08T20:51:28.959Z,9.68
2019-06-08T20:53:57.640Z,9.63
2019-06-08T20:56:28.036Z,7.55
2019-06-08T20:58:57.433Z,8.15
2019-06-08T21:01:26.137Z,7.73
2019-06-08T21:03:56.996Z,7.25
2019-06-08T21:06:25.074Z,7.10
2019-06-08T21:08:54.925Z,6.50
2019-06-08T21:11:24.060Z,6.07
2019-06-08T21:13:53.906Z,6.72
2019-06-08T21:16:22.776Z,6.22
2019-06-08T21:18:51.316Z,6.73
2019-06-08T21:21:19.884Z,6.33
2019-06-08T21:23:52.553Z,7.17
2019-06-08T21:26:18.865Z,6.73
2019-06-08T21:28:52.809Z,6.80
2019-06-08T21:31:20.317Z,7.20
2019-06-08T21:33:50.983Z,7.75
2019-06-08T21:36:19.176Z,6.92
2019-06-08T21:38:52.316Z,7.15
2019-06-08T21:41:20.219Z,6.50
2019-06-08T21:43:51.735Z,7.80
2019-06-08T21:46:19.139Z,7.77
2019-06-08T21:48:50.222Z,6.97
2019-06-08T21:51:18.031Z,6.43
2019-06-08T21:53:48.253Z,6.90
2019-06-08T21:56:18.164Z,6.73
2019-06-08T21:58:48.618Z,6.33
2019-06-08T22:01:18.200Z,7.90
2019-06-08T22:03:49.702Z,7.50
2019-06-08T22:06:18.346Z,7.37
2019-06-08T22:08:48.126Z,7.47
2019-06-08T22:11:17.700Z,6.70
2019-06-08T22:13:47.662Z,6.67
2019-06-08T22:16:16.563Z,6.83
2019-06-08T22:18:47.303Z,7.70
2019-06-08T22:21:17.994Z,7.13
2019-06-08T22:23:47.620Z,7.93
2019-06-08T22:26:17.781Z,6.97
2019-06-08T22:28:48.214Z,6.57
2019-06-08T22:31:23.127Z,6.37
2019-06-08T22:33:52.588Z,7.53
2019-06-08T22:36:21.146Z,7.67
2019-06-08T22:38:49.725Z,7.90
2019-06-08T22:41:18.293Z,9.07
2019-06-08T22:43:48.118Z,9.70
2019-06-08T22:46:17.804Z,9.23
2019-06-08T22:48:47.735Z,7.90
2019-06-08T22:51:18.762Z,6.70
2019-06-08T22:53:47.816Z,5.90
2019-06-08T22:56:18.330Z,6.10
2019-06-08T22:58:47.939Z,5.97
2019-06-08T23:01:18.355Z,6.37
2019-06-08T23:03:47.581Z,5.67
2019-06-08T23:06:17.647Z,5.53
2019-06-08T23:08:48.098Z,4.83
2019-06-08T23:11:18.013Z,6.07
2019-06-08T23:13:47.199Z,5.87
2019-06-08T23:16:17.999Z,6.07
2019-06-08T23:18:47.830Z,5.53
2019-06-08T23:21:18.077Z,5.50
2019-06-08T23:23:47.669Z,6.03
2019-06-08T23:26:18.343Z,5.17
2019-06-08T23:28:47.276Z,5.07
2019-06-08T23:31:24.241Z,5.73
2019-06-08T23:33:48.206Z,5.17
2019-06-08T23:38:48.161Z,5.60
2019-06-08T23:41:17.759Z,5.43
2019-06-08T23:43:48.059Z,5.67
2019-06-08T23:46:18.148Z,5.40
2019-06-08T23:48:48.454Z,5.23
2019-06-08T23:51:18.066Z,5.33
2019-06-08T23:53:47.820Z,5.30
2019-06-08T23:56:18.293Z,5.77
2019-06-08T23:58:48.231Z,5.53
